Time;durP1;ratioP1;P1;durP2;ratioP2;P2;SDS_P1;SDS_P2;PMS_P1;PMS_P2;Temp;Humidity;BMP_temperature;BMP_pressure;BME280_temperature;BME280_humidity;BME280_pressure;Samples;Min_cycle;Max_cycle;Signal;HPM_P1;HPM_P2
2022/12/10 00:00:13;;;;;;;;;;;-0.60;99.90;;;;;;4958170;28;19922;-71
2022/12/10 00:02:39;;;;;;;;;;;-0.60;99.90;;;;;;4959560;28;19933;-71
2022/12/10 00:05:04;;;;;;;;;;;-0.60;99.90;;;;;;4958968;28;19926;-71
2022/12/10 00:07:30;;;;;;;;;;;-0.60;99.90;;;;;;4956483;28;19981;-71
2022/12/10 00:09:55;;;;;;;;;;;-0.50;99.90;;;;;;4963615;28;19930;-71
2022/12/10 00:12:21;;;;;;;;;;;-0.60;99.90;;;;;;4960079;28;20013;-72
2022/12/10 00:14:47;;;;;;;;;;;-0.50;99.90;;;;;;4956757;28;19923;-72
2022/12/10 00:17:12;;;;;;;;;;;-0.50;99.90;;;;;;4965453;28;19945;-72
2022/12/10 00:19:38;;;;;;;;;;;-0.60;99.90;;;;;;4968561;28;19985;-72
2022/12/10 00:22:03;;;;;;;;;;;-0.60;99.90;;;;;;4947427;29;19927;-71
2022/12/10 00:24:29;;;;;;;;;;;-0.60;99.90;;;;;;4941785;28;20040;-71
2022/12/10 00:26:54;;;;;;;;;;;-0.60;99.90;;;;;;4936203;28;19922;-71
2022/12/10 00:29:20;;;;;;;;;;;-0.60;99.90;;;;;;4958678;28;19933;-71
2022/12/10 00:31:45;;;;;;;;;;;-0.60;99.90;;;;;;4936071;28;19973;-71
2022/12/10 00:34:11;;;;;;;;;;;-0.60;99.90;;;;;;4934388;28;19950;-71
2022/12/10 00:36:39;;;;;;;;;;;-0.60;99.90;;;;;;4942424;28;19930;-71
2022/12/10 00:39:05;;;;;;;;;;;-0.60;99.90;;;;;;4955922;28;20375;-71
2022/12/10 00:41:30;;;;;;;;;;;-0.60;99.90;;;;;;4956598;28;19929;-71
2022/12/10 00:43:56;;;;;;;;;;;-0.60;99.90;;;;;;4933820;29;19927;-71
2022/12/10 00:46:22;;;;;;;;;;;-0.70;99.90;;;;;;4953037;28;19932;-71
2022/12/10 00:48:47;;;;;;;;;;;-0.70;99.90;;;;;;4958303;28;19922;-71
2022/12/10 00:51:14;;;;;;;;;;;-0.70;99.90;;;;;;4940398;28;19938;-71
2022/12/10 00:53:41;;;;;;;;;;;-0.70;99.90;;;;;;4956834;28;20298;-71
2022/12/10 00:56:08;;;;;;;;;;;-0.70;99.90;;;;;;4953251;28;19926;-71
2022/12/10 00:58:34;;;;;;;;;;;-0.70;99.90;;;;;;4935739;28;20391;-71
2022/12/10 01:01:07;;;;;;;;;;;-0.70;99.90;;;;;;4949032;28;19922;-71
2022/12/10 01:03:33;;;;;;;;;;;-0.70;99.90;;;;;;4953725;28;20009;-71
2022/12/10 01:06:07;;;;;;;;;;;-0.70;99.90;;;;;;4962342;28;20400;-71
2022/12/10 01:08:32;;;;;;;;;;;-0.70;99.90;;;;;;4952573;28;19930;-71
2022/12/10 01:10:58;;;;;;;;;;;-0.70;99.90;;;;;;4945486;28;19984;-71
2022/12/10 01:13:23;;;;;;;;;;;-0.70;99.90;;;;;;4956203;28;20246;-71
2022/12/10 01:15:49;;;;;;;;;;;-0.70;99.90;;;;;;4948430;28;20400;-71
2022/12/10 01:18:14;;;;;;;;;;;-0.70;99.90;;;;;;4954960;28;20008;-71
2022/12/10 01:20:40;;;;;;;;;;;-0.70;99.90;;;;;;4954360;28;19930;-71
2022/12/10 01:23:06;;;;;;;;;;;-0.70;99.90;;;;;;4946152;28;19930;-71
2022/12/10 01:25:31;;;;;;;;;;;-0.70;99.90;;;;;;4971893;28;20502;-71
2022/12/10 01:27:57;;;;;;;;;;;-0.60;99.90;;;;;;4937047;28;19934;-71
2022/12/10 01:30:22;;;;;;;;;;;-0.70;99.90;;;;;;4937119;28;20406;-71
2022/12/10 01:32:48;;;;;;;;;;;-0.70;99.90;;;;;;4951509;28;19930;-71
2022/12/10 01:35:14;;;;;;;;;;;-0.70;99.90;;;;;;4959086;28;20230;-71
2022/12/10 01:37:39;;;;;;;;;;;-0.70;99.90;;;;;;4960166;28;20049;-71
2022/12/10 01:40:05;;;;;;;;;;;-0.70;99.90;;;;;;4932805;28;19927;-71
2022/12/10 01:42:31;;;;;;;;;;;-0.80;99.90;;;;;;4940319;28;19965;-71
2022/12/10 01:44:58;;;;;;;;;;;-0.80;99.90;;;;;;4972961;28;20471;-71
2022/12/10 01:47:23;;;;;;;;;;;-0.80;99.90;;;;;;4951325;28;19933;-71
2022/12/10 01:49:49;;;;;;;;;;;-0.90;99.90;;;;;;4960571;28;20278;-71
2022/12/10 01:52:14;;;;;;;;;;;-0.90;99.90;;;;;;4948688;28;19926;-71
2022/12/10 01:54:42;;;;;;;;;;;-1.00;99.90;;;;;;4947960;28;19923;-71
2022/12/10 01:57:09;;;;;;;;;;;-1.10;99.90;;;;;;4947493;28;20032;-71
2022/12/10 01:59:35;;;;;;;;;;;-1.10;99.90;;;;;;4960541;28;19980;-71
2022/12/10 02:02:01;;;;;;;;;;;-1.00;99.90;;;;;;4932419;28;19949;-71
2022/12/10 02:04:33;;;;;;;;;;;-1.00;99.90;;;;;;4956788;28;19926;-71
2022/12/10 02:07:06;;;;;;;;;;;-1.00;99.90;;;;;;4947511;28;20422;-71
2022/12/10 02:09:41;;;;;;;;;;;-1.10;99.90;;;;;;4957989;28;19934;-71
2022/12/10 02:12:18;;;;;;;;;;;-1.10;99.90;;;;;;4955523;28;19934;-71
2022/12/10 02:15:00;;;;;;;;;;;-1.10;99.90;;;;;;4940578;28;19926;-71
2022/12/10 02:17:27;;;;;;;;;;;-1.10;99.90;;;;;;4959829;28;19949;-71
2022/12/10 02:20:00;;;;;;;;;;;-1.10;99.90;;;;;;4948027;28;19933;-71
2022/12/10 02:22:28;;;;;;;;;;;-1.10;99.90;;;;;;4947364;28;20167;-71
2022/12/10 02:24:55;;;;;;;;;;;-1.10;99.90;;;;;;4960514;28;19927;-71
2022/12/10 02:27:27;;;;;;;;;;;-1.00;99.90;;;;;;4975785;28;19977;-71
2022/12/10 02:29:54;;;;;;;;;;;-1.10;99.90;;;;;;4950752;28;19933;-70
2022/12/10 02:32:22;;;;;;;;;;;-1.10;99.90;;;;;;4954036;28;19926;-71
2022/12/10 02:34:50;;;;;;;;;;;-1.10;99.90;;;;;;4958982;28;20406;-71
2022/12/10 02:37:18;;;;;;;;;;;-1.10;99.90;;;;;;4953829;28;20386;-71
2022/12/10 02:39:47;;;;;;;;;;;-1.20;99.90;;;;;;4953170;28;19933;-71
2022/12/10 02:42:14;;;;;;;;;;;-1.20;99.90;;;;;;4947633;28;20286;-71
2022/12/10 02:44:41;;;;;;;;;;;-1.20;99.90;;;;;;4958341;28;20449;-71
2022/12/10 02:47:07;;;;;;;;;;;-1.20;99.90;;;;;;4950228;28;19926;-71
2022/12/10 02:49:34;;;;;;;;;;;-1.20;99.90;;;;;;4938273;28;20218;-71
2022/12/10 02:52:05;;;;;;;;;;;-1.20;99.90;;;;;;4938226;28;19930;-71
2022/12/10 02:54:41;;;;;;;;;;;-1.10;99.90;;;;;;4938015;29;20351;-71
2022/12/10 02:57:11;;;;;;;;;;;-1.00;99.90;;;;;;4959461;28;19970;-71
2022/12/10 02:59:37;;;;;;;;;;;-1.00;99.90;;;;;;4958606;28;19926;-71
2022/12/10 03:02:02;;;;;;;;;;;-0.90;99.90;;;;;;4966259;28;19922;-71
2022/12/10 03:04:48;;;;;;;;;;;-0.90;99.90;;;;;;4951542;28;19930;-71
2022/12/10 03:07:21;;;;;;;;;;;-0.80;99.90;;;;;;4952874;28;19926;-71
2022/12/10 03:09:58;;;;;;;;;;;-0.80;99.90;;;;;;4957793;28;19926;-71
2022/12/10 03:12:37;;;;;;;;;;;-0.80;99.90;;;;;;4969007;28;19973;-71
2022/12/10 03:15:05;;;;;;;;;;;-0.80;99.90;;;;;;4947153;28;20052;-71
2022/12/10 03:17:31;;;;;;;;;;;-0.70;99.90;;;;;;4936636;28;19974;-71
2022/12/10 03:19:57;;;;;;;;;;;-0.70;99.90;;;;;;4942661;28;19926;-71
2022/12/10 03:22:23;;;;;;;;;;;-0.70;99.90;;;;;;4964894;28;19922;-71
2022/12/10 03:24:49;;;;;;;;;;;-0.70;99.90;;;;;;4949990;28;20354;-71
2022/12/10 03:27:15;;;;;;;;;;;-0.70;99.90;;;;;;4959392;28;19974;-71
2022/12/10 03:29:43;;;;;;;;;;;-0.70;99.90;;;;;;4955269;28;19923;-71
2022/12/10 03:32:10;;;;;;;;;;;-0.70;99.90;;;;;;4937386;28;20411;-71
2022/12/10 03:34:36;;;;;;;;;;;-0.70;99.90;;;;;;4953229;28;19923;-71
2022/12/10 03:37:02;;;;;;;;;;;-0.70;99.90;;;;;;4957951;28;19926;-71
2022/12/10 03:39:28;;;;;;;;;;;-0.60;99.90;;;;;;4965425;28;20458;-71
2022/12/10 03:41:54;;;;;;;;;;;-0.60;99.90;;;;;;4949698;28;20012;-71
2022/12/10 03:44:28;;;;;;;;;;;-0.60;99.90;;;;;;4949521;28;19926;-71
2022/12/10 03:46:54;;;;;;;;;;;-0.60;99.90;;;;;;4963860;28;19922;-71
2022/12/10 03:49:20;;;;;;;;;;;-0.60;99.90;;;;;;4965247;28;19933;-71
2022/12/10 03:51:45;;;;;;;;;;;-0.60;99.90;;;;;;4963882;28;20068;-71
2022/12/10 03:54:11;;;;;;;;;;;-0.60;99.90;;;;;;4938060;28;19977;-71
2022/12/10 03:56:37;;;;;;;;;;;-0.50;99.90;;;;;;4947065;28;19937;-71
2022/12/10 03:59:03;;;;;;;;;;;-0.50;99.90;;;;;;4948192;28;19922;-71
2022/12/10 04:01:28;;;;;;;;;;;-0.50;99.90;;;;;;4957214;28;19953;-71
2022/12/10 04:03:54;;;;;;;;;;;-0.50;99.90;;;;;;4965338;28;19925;-71
2022/12/10 04:06:19;;;;;;;;;;;-0.40;99.90;;;;;;4934727;28;19926;-71
2022/12/10 04:08:46;;;;;;;;;;;-0.40;99.90;;;;;;4951430;28;20354;-71
2022/12/10 04:11:12;;;;;;;;;;;-0.40;99.90;;;;;;4958018;28;19937;-71
2022/12/10 04:16:29;;;;;;;;;;;-0.30;99.90;;;;;;4951926;28;19977;-71
2022/12/10 04:18:56;;;;;;;;;;;-0.30;99.90;;;;;;4949838;28;19922;-71
2022/12/10 04:26:53;;;;;;;;;;;-0.20;99.90;;;;;;4962537;28;19930;-71
2022/12/10 04:29:23;;;;;;;;;;;-0.20;99.90;;;;;;4956024;28;20363;-71
2022/12/10 04:31:48;;;;;;;;;;;-0.20;99.90;;;;;;4943955;28;20294;-71
2022/12/10 04:34:14;;;;;;;;;;;-0.20;99.90;;;;;;4947858;28;19926;-71
2022/12/10 04:36:40;;;;;;;;;;;-0.20;99.90;;;;;;4945519;28;19956;-71
2022/12/10 04:39:05;;;;;;;;;;;-0.10;99.90;;;;;;4936343;28;19926;-71
2022/12/10 04:41:31;;;;;;;;;;;-0.10;99.90;;;;;;4936964;28;19926;-71
2022/12/10 04:43:56;;;;;;;;;;;-0.10;99.90;;;;;;4937500;28;19982;-71
2022/12/10 04:46:22;;;;;;;;;;;-0.10;99.90;;;;;;4949020;28;19933;-71
2022/12/10 04:48:47;;;;;;;;;;;-0.10;99.90;;;;;;4954631;28;19923;-71
2022/12/10 04:51:13;;;;;;;;;;;-0.10;99.90;;;;;;4948917;28;19931;-71
2022/12/10 04:53:39;;;;;;;;;;;-0.10;99.90;;;;;;4949157;28;20335;-71
2022/12/10 04:56:05;;;;;;;;;;;-0.10;99.90;;;;;;4953038;28;20413;-71
2022/12/10 04:58:31;;;;;;;;;;;-0.10;99.90;;;;;;4959949;28;19952;-71
2022/12/10 05:01:01;;;;;;;;;;;-0.10;99.90;;;;;;4958499;28;20376;-71
2022/12/10 05:03:26;;;;;;;;;;;-0.10;99.90;;;;;;4946401;28;19970;-71
2022/12/10 05:05:52;;;;;;;;;;;-0.20;99.90;;;;;;4959338;28;20158;-71
2022/12/10 05:08:17;;;;;;;;;;;-0.20;99.90;;;;;;4959797;28;20013;-71
2022/12/10 05:10:43;;;;;;;;;;;-0.20;99.90;;;;;;4961969;28;20328;-71
2022/12/10 05:13:09;;;;;;;;;;;-0.20;99.90;;;;;;4942906;28;19933;-70
2022/12/10 05:15:37;;;;;;;;;;;-0.20;99.90;;;;;;4942941;28;20301;-70
2022/12/10 05:18:03;;;;;;;;;;;-0.20;99.90;;;;;;4948065;28;19926;-71
2022/12/10 05:20:28;;;;;;;;;;;-0.20;99.90;;;;;;4960139;28;19926;-71
2022/12/10 05:25:52;;;;;;;;;;;-0.20;99.90;;;;;;4971914;28;19973;-71
2022/12/10 05:28:22;;;;;;;;;;;-0.20;99.90;;;;;;4943896;28;19922;-71
2022/12/10 05:30:47;;;;;;;;;;;-0.20;99.90;;;;;;4961043;28;19970;-71
2022/12/10 05:33:13;;;;;;;;;;;-0.20;99.90;;;;;;4958912;28;20701;-71
2022/12/10 05:35:39;;;;;;;;;;;-0.20;99.90;;;;;;4956687;28;19926;-71
2022/12/10 05:38:05;;;;;;;;;;;-0.20;99.90;;;;;;4963994;28;19926;-70
2022/12/10 05:40:35;;;;;;;;;;;-0.20;99.90;;;;;;4942739;28;19926;-70
2022/12/10 05:43:00;;;;;;;;;;;-0.10;99.90;;;;;;4948233;28;19922;-70
2022/12/10 05:45:26;;;;;;;;;;;-0.10;99.90;;;;;;4957851;28;19922;-70
2022/12/10 05:47:51;;;;;;;;;;;-0.10;99.90;;;;;;4964160;28;19926;-70
2022/12/10 05:50:17;;;;;;;;;;;-0.10;99.90;;;;;;4956152;28;19949;-71
2022/12/10 05:52:43;;;;;;;;;;;-0.10;99.90;;;;;;4947571;28;20359;-71
2022/12/10 05:55:11;;;;;;;;;;;-0.10;99.90;;;;;;4959507;28;19929;-71
2022/12/10 05:57:37;;;;;;;;;;;-0.10;99.90;;;;;;4939541;28;20564;-71
2022/12/10 06:00:04;;;;;;;;;;;-0.10;99.90;;;;;;4939547;28;19937;-71
2022/12/10 06:02:32;;;;;;;;;;;-0.10;99.90;;;;;;4933050;28;19933;-70
2022/12/10 06:04:57;;;;;;;;;;;-0.10;99.90;;;;;;4954459;28;19930;-70
2022/12/10 06:07:25;;;;;;;;;;;-0.10;99.90;;;;;;4946925;28;20345;-71
2022/12/10 06:09:50;;;;;;;;;;;0.00;99.90;;;;;;4948288;28;19978;-71
2022/12/10 06:12:16;;;;;;;;;;;0.00;99.90;;;;;;4947553;28;19926;-71
2022/12/10 06:14:42;;;;;;;;;;;-0.10;99.90;;;;;;4931310;28;19927;-71
2022/12/10 06:17:07;;;;;;;;;;;0.00;99.90;;;;;;4947534;28;19922;-71
2022/12/10 06:19:33;;;;;;;;;;;0.00;99.90;;;;;;4958518;28;19941;-71
2022/12/10 06:21:58;;;;;;;;;;;-0.10;99.90;;;;;;4932042;28;19926;-71
2022/12/10 06:24:24;;;;;;;;;;;0.00;99.90;;;;;;4960982;28;19933;-71
2022/12/10 06:26:50;;;;;;;;;;;-0.10;99.90;;;;;;4972523;28;20387;-71
2022/12/10 06:29:16;;;;;;;;;;;0.00;99.90;;;;;;4947394;28;20000;-71
2022/12/10 06:31:42;;;;;;;;;;;0.00;99.90;;;;;;4930187;29;20016;-71
2022/12/10 06:34:07;;;;;;;;;;;0.00;99.90;;;;;;4928731;28;20017;-70
2022/12/10 06:36:33;;;;;;;;;;;0.00;99.90;;;;;;4962344;28;19926;-71
2022/12/10 06:38:58;;;;;;;;;;;0.00;99.90;;;;;;4959308;28;19988;-71
2022/12/10 06:41:24;;;;;;;;;;;0.00;99.90;;;;;;4950219;28;20010;-71
2022/12/10 06:43:50;;;;;;;;;;;0.00;99.90;;;;;;4938477;28;20029;-71
2022/12/10 06:46:17;;;;;;;;;;;0.00;99.90;;;;;;4957166;28;19922;-70
2022/12/10 06:48:43;;;;;;;;;;;0.00;99.90;;;;;;4933981;28;19922;-71
2022/12/10 06:51:08;;;;;;;;;;;0.10;99.90;;;;;;4954043;28;19961;-71
2022/12/10 06:53:35;;;;;;;;;;;0.10;99.90;;;;;;4938114;28;19930;-71
2022/12/10 06:56:01;;;;;;;;;;;0.10;99.90;;;;;;4954202;28;19976;-71
2022/12/10 06:58:30;;;;;;;;;;;0.10;99.90;;;;;;4928062;29;20017;-71
2022/12/10 07:01:28;;;;;;;;;;;0.10;99.90;;;;;;4962873;28;19972;-71
2022/12/10 07:03:55;;;;;;;;;;;0.10;99.90;;;;;;4927283;28;19933;-71
2022/12/10 07:06:21;;;;;;;;;;;0.10;99.90;;;;;;4946758;28;20301;-71
2022/12/10 07:08:47;;;;;;;;;;;0.10;99.90;;;;;;4962676;28;20276;-71
2022/12/10 07:11:14;;;;;;;;;;;0.10;99.90;;;;;;4961350;28;19953;-71
2022/12/10 07:13:40;;;;;;;;;;;0.10;99.90;;;;;;4961137;28;19930;-71
2022/12/10 07:16:13;;;;;;;;;;;0.10;99.90;;;;;;4956288;28;19926;-71
2022/12/10 07:18:38;;;;;;;;;;;0.10;99.90;;;;;;4961068;28;19933;-71
2022/12/10 07:21:18;;;;;;;;;;;0.10;99.90;;;;;;4941464;28;19930;-71
2022/12/10 07:23:43;;;;;;;;;;;0.10;99.90;;;;;;4950379;28;20404;-71
2022/12/10 07:26:09;;;;;;;;;;;0.10;99.90;;;;;;4958076;28;20013;-71
2022/12/10 07:28:34;;;;;;;;;;;0.10;99.90;;;;;;4937294;28;20017;-71
2022/12/10 07:31:01;;;;;;;;;;;0.00;99.90;;;;;;4952197;28;19926;-71
2022/12/10 07:33:27;;;;;;;;;;;0.00;99.90;;;;;;4944114;28;20427;-71
2022/12/10 07:35:52;;;;;;;;;;;0.00;99.90;;;;;;4950634;28;20013;-71
2022/12/10 07:38:18;;;;;;;;;;;0.00;99.90;;;;;;4962743;28;19922;-71
2022/12/10 07:40:43;;;;;;;;;;;0.00;99.90;;;;;;4953307;28;20354;-71
2022/12/10 07:43:09;;;;;;;;;;;0.00;99.90;;;;;;4961168;28;19989;-71
2022/12/10 07:45:34;;;;;;;;;;;0.00;99.90;;;;;;4956295;28;19933;-71
2022/12/10 07:48:00;;;;;;;;;;;0.00;99.90;;;;;;4945239;28;19972;-71
2022/12/10 07:50:25;;;;;;;;;;;0.00;99.90;;;;;;4941054;28;19974;-71
2022/12/10 07:52:51;;;;;;;;;;;0.00;99.90;;;;;;4956718;28;19934;-71
2022/12/10 07:55:16;;;;;;;;;;;-0.10;99.90;;;;;;4938863;28;19930;-71
2022/12/10 07:57:42;;;;;;;;;;;-0.10;99.90;;;;;;4961832;28;19977;-71
2022/12/10 08:00:08;;;;;;;;;;;-0.10;99.90;;;;;;4938262;28;20308;-71
2022/12/10 08:02:34;;;;;;;;;;;-0.10;99.90;;;;;;4946053;28;19930;-71
2022/12/10 08:05:00;;;;;;;;;;;-0.10;99.90;;;;;;4942534;28;19933;-71
2022/12/10 08:07:26;;;;;;;;;;;-0.10;99.90;;;;;;4936414;28;20377;-71
2022/12/10 08:09:51;;;;;;;;;;;-0.10;99.90;;;;;;4956677;28;19973;-71
2022/12/10 08:12:17;;;;;;;;;;;-0.10;99.90;;;;;;4932995;28;19926;-71
2022/12/10 08:14:42;;;;;;;;;;;-0.10;99.90;;;;;;4939423;28;19989;-71
2022/12/10 08:17:08;;;;;;;;;;;-0.10;99.90;;;;;;4932925;28;19930;-71
2022/12/10 08:19:33;;;;;;;;;;;-0.10;99.90;;;;;;4941328;28;20406;-74
2022/12/10 08:21:59;;;;;;;;;;;-0.10;99.90;;;;;;4960645;28;19982;-74
2022/12/10 08:24:25;;;;;;;;;;;-0.10;99.90;;;;;;4960329;28;19933;-73
2022/12/10 08:26:50;;;;;;;;;;;-0.10;99.90;;;;;;4965805;28;19926;-74
2022/12/10 08:29:17;;;;;;;;;;;-0.10;99.90;;;;;;4961031;28;20417;-73
2022/12/10 08:31:42;;;;;;;;;;;-0.10;99.90;;;;;;4968178;28;19932;-73
2022/12/10 08:34:12;;;;;;;;;;;-0.10;99.90;;;;;;4966066;28;20021;-74
2022/12/10 08:36:38;;;;;;;;;;;-0.10;99.90;;;;;;4953742;28;20383;-74
2022/12/10 08:39:03;;;;;;;;;;;-0.10;99.90;;;;;;4950547;28;19964;-74
2022/12/10 08:41:29;;;;;;;;;;;-0.10;99.90;;;;;;4956414;28;19934;-74
2022/12/10 08:43:55;;;;;;;;;;;-0.10;99.90;;;;;;4957464;28;20371;-73
2022/12/10 08:46:21;;;;;;;;;;;-0.10;99.90;;;;;;4972486;28;19976;-74
2022/12/10 08:48:46;;;;;;;;;;;-0.10;99.90;;;;;;4979851;28;19922;-73
2022/12/10 08:51:14;;;;;;;;;;;-0.10;99.90;;;;;;4937631;28;20280;-73
2022/12/10 08:53:44;;;;;;;;;;;-0.10;99.90;;;;;;4942672;29;20310;-73
2022/12/10 08:56:10;;;;;;;;;;;-0.10;99.90;;;;;;4944918;28;20341;-73
2022/12/10 08:58:37;;;;;;;;;;;-0.10;99.90;;;;;;4955736;28;20178;-74
2022/12/10 09:01:06;;;;;;;;;;;-0.20;99.90;;;;;;4962466;28;19961;-73
2022/12/10 09:03:32;;;;;;;;;;;-0.20;99.90;;;;;;4970005;28;19922;-73
2022/12/10 09:06:01;;;;;;;;;;;-0.20;99.90;;;;;;4957535;28;19926;-73
2022/12/10 09:08:27;;;;;;;;;;;-0.20;99.90;;;;;;4953307;28;19934;-75
2022/12/10 09:10:53;;;;;;;;;;;-0.20;99.90;;;;;;4948911;28;20404;-74
2022/12/10 09:13:18;;;;;;;;;;;-0.20;99.90;;;;;;4947646;29;19997;-74
2022/12/10 09:15:53;;;;;;;;;;;-0.20;99.90;;;;;;4953858;28;20454;-73
2022/12/10 09:18:19;;;;;;;;;;;-0.20;99.90;;;;;;4955942;28;19930;-72
2022/12/10 09:20:44;;;;;;;;;;;-0.20;99.90;;;;;;4967413;28;19926;-72
2022/12/10 09:23:10;;;;;;;;;;;-0.10;99.90;;;;;;4941562;28;20291;-72
2022/12/10 09:25:35;;;;;;;;;;;-0.20;99.90;;;;;;4941924;28;19972;-71
2022/12/10 09:28:01;;;;;;;;;;;-0.20;99.90;;;;;;4955079;28;19922;-71
2022/12/10 09:30:27;;;;;;;;;;;-0.20;99.90;;;;;;4948536;28;20116;-72
2022/12/10 09:32:52;;;;;;;;;;;-0.20;99.90;;;;;;4948246;28;20166;-71
2022/12/10 09:35:18;;;;;;;;;;;-0.20;99.90;;;;;;4948483;28;19922;-71
2022/12/10 09:37:43;;;;;;;;;;;-0.20;99.90;;;;;;4947962;28;19970;-71
2022/12/10 09:40:14;;;;;;;;;;;-0.20;99.90;;;;;;4944939;29;20688;-71
2022/12/10 09:42:48;;;;;;;;;;;-0.20;99.90;;;;;;4932685;29;20418;-71
2022/12/10 09:45:34;;;;;;;;;;;-0.20;99.90;;;;;;4956492;28;19926;-71
2022/12/10 09:48:02;;;;;;;;;;;-0.10;99.90;;;;;;4955208;28;19930;-71
2022/12/10 09:50:27;;;;;;;;;;;-0.10;99.90;;;;;;4951792;28;19922;-71
2022/12/10 09:52:55;;;;;;;;;;;-0.10;99.90;;;;;;4959307;28;19926;-71
2022/12/10 09:55:26;;;;;;;;;;;-0.10;99.90;;;;;;4948357;28;19933;-71
2022/12/10 09:57:53;;;;;;;;;;;-0.10;99.90;;;;;;4934434;28;19972;-71
2022/12/10 10:00:21;;;;;;;;;;;-0.10;99.90;;;;;;4942729;28;19980;-71
2022/12/10 10:02:48;;;;;;;;;;;-0.20;99.90;;;;;;4962276;28;19931;-71
2022/12/10 10:05:18;;;;;;;;;;;-0.10;99.90;;;;;;4955744;28;20431;-71
2022/12/10 10:07:46;;;;;;;;;;;-0.10;99.90;;;;;;4958259;28;20005;-71
2022/12/10 10:10:18;;;;;;;;;;;-0.10;99.90;;;;;;4939240;28;19962;-71
2022/12/10 10:12:44;;;;;;;;;;;-0.10;99.90;;;;;;4959772;28;20012;-71
2022/12/10 10:15:14;;;;;;;;;;;-0.10;99.90;;;;;;4935716;28;19927;-71
2022/12/10 10:17:45;;;;;;;;;;;-0.10;99.90;;;;;;4940371;28;19962;-71
2022/12/10 10:20:12;;;;;;;;;;;-0.10;99.90;;;;;;4959724;28;19946;-71
2022/12/10 10:22:38;;;;;;;;;;;-0.10;99.90;;;;;;4962135;28;19973;-71
2022/12/10 10:25:05;;;;;;;;;;;-0.10;99.90;;;;;;4959122;28;19938;-71
2022/12/10 10:27:33;;;;;;;;;;;0.00;99.90;;;;;;4934809;28;20052;-71
2022/12/10 10:30:00;;;;;;;;;;;0.00;99.90;;;;;;4952884;28;20435;-71
2022/12/10 10:32:25;;;;;;;;;;;0.00;99.90;;;;;;4953377;28;20307;-71
2022/12/10 10:34:52;;;;;;;;;;;0.00;99.90;;;;;;4954751;28;19926;-71
2022/12/10 10:37:20;;;;;;;;;;;0.00;99.90;;;;;;4949707;28;19936;-71
2022/12/10 10:39:47;;;;;;;;;;;0.00;99.90;;;;;;4954202;28;19953;-71
2022/12/10 10:42:18;;;;;;;;;;;0.00;99.90;;;;;;4954723;28;19922;-71
2022/12/10 10:44:44;;;;;;;;;;;0.00;99.90;;;;;;4953503;28;19926;-71
2022/12/10 10:47:26;;;;;;;;;;;0.00;99.90;;;;;;4939602;28;19938;-71
2022/12/10 10:49:53;;;;;;;;;;;0.00;99.90;;;;;;4955511;28;19926;-71
2022/12/10 10:52:19;;;;;;;;;;;0.00;99.90;;;;;;4948566;28;20231;-71
2022/12/10 10:54:45;;;;;;;;;;;0.00;99.90;;;;;;4954968;28;19926;-71
2022/12/10 10:57:30;;;;;;;;;;;0.00;99.90;;;;;;4951722;28;19929;-74
2022/12/10 11:00:00;;;;;;;;;;;0.10;99.90;;;;;;4959351;28;19922;-74
2022/12/10 11:02:28;;;;;;;;;;;0.10;99.90;;;;;;4959111;28;20026;-74
2022/12/10 11:04:55;;;;;;;;;;;0.10;99.90;;;;;;4961848;28;19976;-74
2022/12/10 11:07:20;;;;;;;;;;;0.10;99.90;;;;;;4950828;28;20027;-74
2022/12/10 11:09:46;;;;;;;;;;;0.10;99.90;;;;;;4955596;28;19948;-73
2022/12/10 11:12:30;;;;;;;;;;;0.20;99.90;;;;;;4956185;28;20025;-73
2022/12/10 11:14:56;;;;;;;;;;;0.20;99.90;;;;;;4951125;28;20449;-73
2022/12/10 11:17:24;;;;;;;;;;;0.20;99.90;;;;;;4957035;28;19937;-73
2022/12/10 11:20:09;;;;;;;;;;;0.20;99.90;;;;;;4950294;28;20626;-74
2022/12/10 11:22:35;;;;;;;;;;;0.20;99.90;;;;;;4934450;28;19937;-75
2022/12/10 11:25:00;;;;;;;;;;;0.20;99.90;;;;;;4952086;28;19922;-73
2022/12/10 11:27:29;;;;;;;;;;;0.20;99.90;;;;;;4946046;28;20009;-74
2022/12/10 11:29:57;;;;;;;;;;;0.20;99.90;;;;;;4954150;28;20098;-73
2022/12/10 11:32:41;;;;;;;;;;;0.20;99.90;;;;;;4935084;28;19965;-73
2022/12/10 11:35:12;;;;;;;;;;;0.20;99.90;;;;;;4936421;28;19933;-73
2022/12/10 11:37:56;;;;;;;;;;;0.20;99.90;;;;;;4940507;28;20039;-73
2022/12/10 11:40:32;;;;;;;;;;;0.20;99.90;;;;;;4952391;28;19922;-73
2022/12/10 11:43:04;;;;;;;;;;;0.20;99.90;;;;;;4940588;28;19930;-73
2022/12/10 11:45:47;;;;;;;;;;;0.20;99.90;;;;;;4952529;28;19973;-73
2022/12/10 11:48:36;;;;;;;;;;;0.20;99.90;;;;;;4957093;28;20068;-73
2022/12/10 11:51:08;;;;;;;;;;;0.20;99.90;;;;;;4964206;28;19935;-72
2022/12/10 11:53:52;;;;;;;;;;;0.20;99.90;;;;;;4968193;28;20843;-73
2022/12/10 11:56:22;;;;;;;;;;;0.20;99.90;;;;;;4948263;28;19933;-72
2022/12/10 11:59:02;;;;;;;;;;;0.20;99.90;;;;;;4956309;28;19923;-73
2022/12/10 12:01:34;;;;;;;;;;;0.20;99.90;;;;;;4955299;28;20276;-74
2022/12/10 12:04:07;;;;;;;;;;;0.20;99.90;;;;;;4957349;28;20243;-74
2022/12/10 12:06:51;;;;;;;;;;;0.20;99.90;;;;;;4953894;28;19930;-74
2022/12/10 12:09:23;;;;;;;;;;;0.30;99.90;;;;;;4955005;28;19934;-72
2022/12/10 12:12:04;;;;;;;;;;;0.30;99.90;;;;;;4955607;28;19961;-73
2022/12/10 12:14:56;;;;;;;;;;;0.40;99.90;;;;;;4960569;28;20298;-73
2022/12/10 12:17:39;;;;;;;;;;;0.40;99.90;;;;;;4967049;28;20001;-74
2022/12/10 12:20:17;;;;;;;;;;;0.50;99.90;;;;;;4960146;28;20502;-73
2022/12/10 12:22:53;;;;;;;;;;;0.60;99.90;;;;;;4953601;28;19942;-73
2022/12/10 12:25:26;;;;;;;;;;;0.70;99.90;;;;;;4962858;28;19938;-73
2022/12/10 12:28:13;;;;;;;;;;;0.70;99.90;;;;;;4969167;28;20267;-73
2022/12/10 12:30:41;;;;;;;;;;;0.80;99.90;;;;;;4933536;28;19930;-74
2022/12/10 12:33:27;;;;;;;;;;;0.80;99.90;;;;;;4958359;28;20014;-73
2022/12/10 12:35:57;;;;;;;;;;;0.90;99.90;;;;;;4961751;28;19923;-73
2022/12/10 12:38:27;;;;;;;;;;;0.80;99.90;;;;;;4962211;28;20294;-74
2022/12/10 12:41:11;;;;;;;;;;;0.90;99.90;;;;;;4943851;28;20020;-73
2022/12/10 12:43:37;;;;;;;;;;;0.90;99.90;;;;;;4955347;28;19978;-73
2022/12/10 12:46:35;;;;;;;;;;;0.80;99.90;;;;;;4956486;28;19923;-74
2022/12/10 12:49:12;;;;;;;;;;;0.70;99.90;;;;;;4926656;28;20147;-73
2022/12/10 12:51:58;;;;;;;;;;;0.60;99.90;;;;;;4955686;28;19926;-73
2022/12/10 12:54:23;;;;;;;;;;;0.60;99.90;;;;;;4957579;28;20359;-74
2022/12/10 12:57:14;;;;;;;;;;;0.50;99.90;;;;;;4953477;28;19930;-73
2022/12/10 12:59:58;;;;;;;;;;;0.50;99.90;;;;;;4942713;28;20387;-74
2022/12/10 13:02:43;;;;;;;;;;;0.50;99.90;;;;;;4956636;28;19922;-74
2022/12/10 13:05:18;;;;;;;;;;;0.50;99.90;;;;;;4955389;28;19953;-75
2022/12/10 13:07:43;;;;;;;;;;;0.50;99.90;;;;;;4941405;28;19958;-74
2022/12/10 13:10:17;;;;;;;;;;;0.50;99.90;;;;;;4944922;28;19934;-73
2022/12/10 13:12:48;;;;;;;;;;;0.50;99.90;;;;;;4953941;28;19927;-73
2022/12/10 13:15:18;;;;;;;;;;;0.50;99.90;;;;;;4949428;28;20234;-73
2022/12/10 13:18:01;;;;;;;;;;;0.50;99.90;;;;;;4956726;28;19976;-72
2022/12/10 13:20:27;;;;;;;;;;;0.50;99.90;;;;;;4953387;28;19929;-73
2022/12/10 13:23:00;;;;;;;;;;;0.50;99.90;;;;;;4962417;28;19930;-72
2022/12/10 13:25:38;;;;;;;;;;;0.50;99.90;;;;;;4959019;28;19927;-73
2022/12/10 13:28:22;;;;;;;;;;;0.50;99.90;;;;;;4957338;28;19922;-73
2022/12/10 13:31:05;;;;;;;;;;;0.40;99.90;;;;;;4948064;28;20434;-73
2022/12/10 13:33:49;;;;;;;;;;;0.40;99.90;;;;;;4943502;28;20439;-73
2022/12/10 13:36:24;;;;;;;;;;;0.50;99.90;;;;;;4944376;28;20285;-72
2022/12/10 13:39:16;;;;;;;;;;;0.50;99.90;;;;;;4954077;28;20367;-72
2022/12/10 13:45:03;;;;;;;;;;;0.50;99.90;;;;;;4958184;28;19957;-73
2022/12/10 13:47:35;;;;;;;;;;;0.50;99.90;;;;;;4937610;29;20012;-73
2022/12/10 13:50:03;;;;;;;;;;;0.50;99.90;;;;;;4954211;28;20009;-73
2022/12/10 13:52:35;;;;;;;;;;;0.50;99.90;;;;;;4970832;28;19981;-73
2022/12/10 13:55:19;;;;;;;;;;;0.50;99.90;;;;;;4939935;28;19926;-73
2022/12/10 13:57:51;;;;;;;;;;;0.50;99.90;;;;;;4947749;28;19926;-72
2022/12/10 14:00:22;;;;;;;;;;;0.50;99.90;;;;;;4956932;28;19938;-73
2022/12/10 14:02:55;;;;;;;;;;;0.50;99.90;;;;;;4953680;28;19926;-73
2022/12/10 14:05:40;;;;;;;;;;;0.50;99.90;;;;;;4956188;28;19926;-72
2022/12/10 14:08:05;;;;;;;;;;;0.50;99.90;;;;;;4966277;28;19926;-72
2022/12/10 14:10:33;;;;;;;;;;;0.50;99.90;;;;;;4956937;28;19996;-73
2022/12/10 14:13:00;;;;;;;;;;;0.50;99.90;;;;;;4947764;28;19934;-72
2022/12/10 14:15:26;;;;;;;;;;;0.50;99.90;;;;;;4955433;28;19926;-72
2022/12/10 14:18:09;;;;;;;;;;;0.50;99.90;;;;;;4941449;28;19932;-73
2022/12/10 14:20:35;;;;;;;;;;;0.50;99.90;;;;;;4967428;28;20300;-73
2022/12/10 14:23:32;;;;;;;;;;;0.50;99.90;;;;;;4954775;28;20016;-73
2022/12/10 14:25:58;;;;;;;;;;;0.50;99.90;;;;;;4941024;28;19923;-73
2022/12/10 14:28:24;;;;;;;;;;;0.50;99.90;;;;;;4952965;28;19977;-73
2022/12/10 14:30:50;;;;;;;;;;;0.50;99.90;;;;;;4957986;28;19930;-73
2022/12/10 14:33:17;;;;;;;;;;;0.40;99.90;;;;;;4958247;28;20009;-73
2022/12/10 14:35:46;;;;;;;;;;;0.40;99.90;;;;;;4953724;28;19922;-73
2022/12/10 14:38:17;;;;;;;;;;;0.40;99.90;;;;;;4959127;28;19977;-73
2022/12/10 14:40:42;;;;;;;;;;;0.40;99.90;;;;;;4959237;28;20354;-73
2022/12/10 14:43:14;;;;;;;;;;;0.50;99.90;;;;;;4959278;28;19954;-73
2022/12/10 14:45:45;;;;;;;;;;;0.50;99.90;;;;;;4951016;28;19930;-73